Terminal Aerodrome Forecast
Issued by NWS Memphis, TN

Home | Current Version | Previous Version | Text Only | Print | Product List | Glossary On
Versions: 1 2 3 4 5 6 7 8 9 10 11 12 13
000
FTUS44 KMEG 291120
TAFMKL
TAF
KMKL 291120Z 2912/3012 21014G23KT P6SM BKN100 OVC250 WS020/24055KT
     FM291500 24014G22KT P6SM BKN100 OVC250
     FM291700 31014G22KT P6SM SCT030 BKN050 BKN250
     FM300000 34012KT P6SM SCT030 BKN050
     FM300300 35007KT P6SM SCT030 BKN050
     FM300900 34005KT P6SM SKC=

USA.gov is the U.S. government's official web portal to all federal, state and local government web resources and services.